Time;durP1;ratioP1;P1;durP2;ratioP2;P2;SDS_P1;SDS_P2;PMS_P1;PMS_P2;Temp;Humidity;BMP_temperature;BMP_pressure;BME280_temperature;BME280_humidity;BME280_pressure;Samples;Min_cycle;Max_cycle;Signal;HPM_P1;HPM_P2
2022/06/01 00:01:32;;;;;;;;;3.33;3.00;;;;;31.72;19.42;101071.88;5098257;27;46093;-76
2022/06/01 00:03:57;;;;;;;;;5.67;4.00;;;;;31.42;19.89;101046.31;5096835;27;45417;-76
2022/06/01 00:06:23;;;;;;;;;3.00;3.00;;;;;31.69;19.93;101075.69;5098256;27;45441;-75
2022/06/01 00:08:48;;;;;;;;;3.67;3.67;;;;;31.64;19.68;101073.28;5097961;27;45376;-76
2022/06/01 00:11:14;;;;;;;;;3.33;3.33;;;;;31.59;19.29;101071.78;5097697;27;49407;-75
2022/06/01 00:13:41;;;;;;;;;2.00;2.00;;;;;31.54;19.24;101066.56;5097937;27;45411;-75
2022/06/01 00:16:07;;;;;;;;;3.00;3.00;;;;;31.53;18.96;101056.56;5098077;27;45306;-76
2022/06/01 00:18:33;;;;;;;;;4.67;3.33;;;;;31.28;19.28;101044.44;5098161;27;46229;-76
2022/06/01 00:20:59;;;;;;;;;3.00;3.00;;;;;31.65;19.37;101082.38;5097803;27;45440;-76
2022/06/01 00:23:24;;;;;;;;;4.00;4.00;;;;;31.54;19.73;101051.97;5096589;27;45468;-75
2022/06/01 00:25:50;;;;;;;;;3.67;2.67;;;;;31.51;19.68;101068.63;5097726;27;45595;-76
2022/06/01 00:28:15;;;;;;;;;3.00;3.00;;;;;31.58;19.41;101092.84;5096235;27;45631;-76
2022/06/01 00:30:41;;;;;;;;;4.00;4.00;;;;;31.50;19.75;101073.22;5097588;27;46373;-76
2022/06/01 00:33:06;;;;;;;;;3.00;3.00;;;;;31.55;20.13;101082.03;5097841;27;45345;-75
2022/06/01 00:35:32;;;;;;;;;4.00;3.00;;;;;31.55;19.59;101078.44;5096681;27;45255;-75
2022/06/01 00:37:57;;;;;;;;;2.67;2.67;;;;;31.48;19.37;101073.31;5097731;27;45614;-76
2022/06/01 00:40:26;;;;;;;;;3.33;2.67;;;;;31.50;19.86;101080.56;5097316;27;46102;-76
2022/06/01 00:42:57;;;;;;;;;3.00;3.00;;;;;31.50;19.94;101073.22;5097442;27;45405;-75
2022/06/01 00:45:25;;;;;;;;;3.33;3.33;;;;;31.56;19.77;101081.06;5097798;27;45251;-76
2022/06/01 00:47:51;;;;;;;;;2.67;2.67;;;;;31.55;19.64;101072.94;5097334;27;45571;-75
2022/06/01 00:50:25;;;;;;;;;2.00;2.00;;;;;31.54;19.64;101054.72;5113221;27;46465;-75
2022/06/01 00:53:05;;;;;;;;;5.67;4.67;;;;;31.66;19.88;101081.41;5096907;27;45438;-78
2022/06/01 00:55:34;;;;;;;;;3.00;3.00;;;;;31.63;19.51;101085.22;5097418;27;45518;-75
2022/06/01 00:58:22;;;;;;;;;6.00;4.67;;;;;31.35;19.73;101065.97;5097379;27;45579;-75
2022/06/01 01:00:50;;;;;;;;;5.33;4.67;;;;;31.30;19.68;101066.28;5096831;27;45469;-76
2022/06/01 01:03:17;;;;;;;;;5.00;4.00;;;;;31.39;19.95;101075.78;5097352;27;45525;-75
2022/06/01 01:05:55;;;;;;;;;3.00;3.00;;;;;31.43;20.68;101072.72;5097249;27;45387;-75
2022/06/01 01:08:20;;;;;;;;;5.00;3.67;;;;;31.53;20.02;101088.59;5097039;27;45527;-75
2022/06/01 01:10:46;;;;;;;;;2.00;2.00;;;;;31.45;20.81;101076.28;5096562;27;50833;-75
2022/06/01 01:13:14;;;;;;;;;3.33;2.67;;;;;31.52;19.88;101093.22;5096930;27;45469;-75
2022/06/01 01:15:54;;;;;;;;;4.67;4.67;;;;;31.30;19.97;101064.41;5097046;27;45331;-75
2022/06/01 01:18:32;;;;;;;;;3.00;3.00;;;;;31.50;20.66;101091.53;5096950;27;45487;-75
2022/06/01 01:21:26;;;;;;;;;3.33;3.33;;;;;31.47;20.83;101088.00;5096692;27;46058;-75
2022/06/01 01:24:00;;;;;;;;;4.67;4.00;;;;;31.42;21.20;101083.78;5096609;27;45429;-76
2022/06/01 01:26:28;;;;;;;;;7.33;5.00;;;;;31.34;21.37;101073.34;5097018;27;45455;-75
2022/06/01 01:28:54;;;;;;;;;5.00;4.67;;;;;31.25;21.30;101073.91;5096588;27;45308;-75
2022/06/01 01:31:23;;;;;;;;;5.67;4.67;;;;;31.34;21.08;101072.47;5096897;27;45349;-75
2022/06/01 01:33:52;;;;;;;;;5.67;4.33;;;;;31.28;20.80;101057.25;5096640;27;45412;-76
2022/06/01 01:36:23;;;;;;;;;4.33;4.00;;;;;31.35;21.36;101077.84;5096738;27;45532;-75
2022/06/01 01:39:07;;;;;;;;;5.33;3.67;;;;;31.39;20.79;101076.66;5096316;27;45385;-75
2022/06/01 01:41:45;;;;;;;;;4.67;4.00;;;;;31.44;20.60;101079.97;5096215;27;46398;-76
2022/06/01 01:44:22;;;;;;;;;6.67;5.67;;;;;31.43;20.54;101085.56;5095225;27;45452;-75
2022/06/01 01:46:49;;;;;;;;;4.33;4.33;;;;;31.28;20.98;101069.13;5096468;27;45436;-76
2022/06/01 01:49:18;;;;;;;;;4.67;3.67;;;;;31.22;20.68;101064.00;5096760;27;45396;-75
2022/06/01 01:51:44;;;;;;;;;4.00;4.00;;;;;31.18;20.81;101072.53;5095866;27;45723;-75
2022/06/01 01:54:31;;;;;;;;;7.00;5.67;;;;;31.20;21.31;101068.72;5096347;27;45455;-78
2022/06/01 01:57:14;;;;;;;;;5.00;5.00;;;;;31.22;20.75;101085.06;5095004;27;45476;-75
2022/06/01 02:00:09;;;;;;;;;7.33;4.33;;;;;31.05;21.27;101062.31;5096518;27;45553;-75
2022/06/01 02:03:02;;;;;;;;;5.33;5.33;;;;;31.13;21.14;101075.56;5096306;27;45385;-77
2022/06/01 02:06:04;;;;;;;;;6.00;3.67;;;;;31.07;21.15;101068.63;5095979;27;45218;-78
2022/06/01 02:08:38;;;;;;;;;4.00;4.00;;;;;30.98;20.84;101060.06;5096322;27;45382;-78
2022/06/01 02:14:31;;;;;;;;;5.00;5.00;;;;;30.94;20.84;101056.59;5091437;27;45690;-78
2022/06/01 02:17:01;;;;;;;;;5.00;5.00;;;;;30.74;20.99;101027.72;5095622;27;45375;-77
2022/06/01 02:19:33;;;;;;;;;6.00;6.00;;;;;30.79;21.06;101042.88;5096153;27;45435;-77
2022/06/01 02:21:59;;;;;;;;;5.00;5.00;;;;;30.85;21.33;101052.59;5095751;27;45471;-78
2022/06/01 02:24:25;;;;;;;;;4.00;4.00;;;;;30.85;21.16;101041.63;5095926;27;45580;-78
2022/06/01 02:26:54;;;;;;;;;5.67;4.67;;;;;30.85;21.11;101041.63;5095622;27;45658;-76
2022/06/01 02:29:28;;;;;;;;;4.33;4.33;;;;;30.84;21.11;101026.16;5094640;27;45443;-78
2022/06/01 02:31:55;;;;;;;;;1.00;1.00;;;;;30.90;21.41;101028.53;5096072;27;45399;-75
2022/06/01 02:34:22;;;;;;;;;6.00;5.00;;;;;30.68;21.24;101018.03;5095401;27;45828;-75
2022/06/01 02:36:49;;;;;;;;;9.00;5.00;;;;;30.73;21.29;101034.16;5095913;27;45496;-78
2022/06/01 02:39:16;;;;;;;;;6.00;6.00;;;;;30.60;21.35;101029.47;5095992;27;45380;-78
2022/06/01 02:44:25;;;;;;;;;6.67;6.33;;;;;30.76;21.10;101037.59;5095682;27;45732;-77
2022/06/01 02:46:51;;;;;;;;;5.00;5.00;;;;;30.67;21.07;101035.41;5095565;27;45500;-78
2022/06/01 02:49:17;;;;;;;;;6.00;6.00;;;;;30.62;21.38;101018.41;5095597;27;45448;-76
2022/06/01 02:51:44;;;;;;;;;5.00;5.00;;;;;30.78;21.11;101038.38;5097842;27;45385;-78
2022/06/01 02:54:10;;;;;;;;;5.33;5.33;;;;;30.89;21.07;101042.34;5099175;27;45400;-78
2022/06/01 02:56:35;;;;;;;;;7.67;5.33;;;;;30.83;21.34;101018.94;5099391;27;45489;-78
2022/06/01 02:59:00;;;;;;;;;5.67;5.67;;;;;30.82;21.10;101030.00;5099057;27;45581;-78
2022/06/01 03:01:26;;;;;;;;;4.67;4.67;;;;;30.85;21.21;101041.63;5098076;27;45470;-78
2022/06/01 03:03:51;;;;;;;;;6.67;6.00;;;;;31.02;21.67;101047.97;5098675;27;46059;-78
2022/06/01 03:06:16;;;;;;;;;6.33;5.00;;;;;30.81;21.73;101022.75;5099133;27;45472;-78
2022/06/01 03:08:42;;;;;;;;;4.33;4.33;;;;;30.86;21.77;101032.44;5099223;27;45494;-78
2022/06/01 03:11:08;;;;;;;;;5.67;5.67;;;;;30.88;21.37;101032.34;5098869;27;45333;-77
2022/06/01 03:13:33;;;;;;;;;7.33;6.00;;;;;30.81;21.53;101020.00;5098997;27;45456;-78
2022/06/01 03:15:59;;;;;;;;;7.00;5.67;;;;;30.90;21.31;101030.38;5098769;27;45459;-78
2022/06/01 03:18:25;;;;;;;;;6.33;6.33;;;;;30.87;21.65;101039.69;5098666;27;45335;-78
2022/06/01 03:20:51;;;;;;;;;6.67;6.67;;;;;30.84;21.17;101033.50;5097624;27;45437;-77
2022/06/01 03:23:19;;;;;;;;;4.33;4.33;;;;;30.73;21.36;101035.06;5098833;27;45395;-75
2022/06/01 03:25:44;;;;;;;;;5.00;5.00;;;;;30.74;21.37;101031.31;5099088;27;45818;-77
2022/06/01 03:28:09;;;;;;;;;6.00;6.00;;;;;30.64;21.77;101040.22;5098788;27;45400;-77
2022/06/01 03:30:35;;;;;;;;;6.00;6.00;;;;;30.61;21.60;101044.03;5099049;27;45309;-78
2022/06/01 03:33:01;;;;;;;;;6.00;6.00;;;;;30.55;21.53;101033.41;5098082;27;45391;-78
2022/06/01 03:35:30;;;;;;;;;5.33;4.67;;;;;30.55;22.06;101049.84;5098799;27;45301;-78
2022/06/01 03:37:57;;;;;;;;;6.67;6.00;;;;;30.57;21.77;101051.53;5098739;27;45366;-78
2022/06/01 03:40:25;;;;;;;;;7.33;7.00;;;;;30.56;22.32;101057.09;5098726;27;45424;-78
2022/06/01 03:42:51;;;;;;;;;9.00;6.33;;;;;30.48;22.44;101064.88;5098243;27;45935;-78
2022/06/01 03:48:00;;;;;;;;;6.00;6.00;;;;;30.34;22.50;101050.16;5098296;27;45234;-78
2022/06/01 03:50:28;;;;;;;;;6.00;6.00;;;;;30.45;22.29;101055.03;5098634;27;45495;-76
2022/06/01 03:52:55;;;;;;;;;6.00;5.33;;;;;30.50;22.24;101063.81;5098077;27;45486;-77
2022/06/01 03:55:21;;;;;;;;;6.00;4.33;;;;;30.40;22.25;101047.03;5098331;27;45418;-78
2022/06/01 03:57:47;;;;;;;;;4.00;4.00;;;;;30.42;22.73;101053.31;5114550;27;45315;-78
2022/06/01 04:00:16;;;;;;;;;5.00;5.00;;;;;30.35;22.59;101062.88;5096940;27;45436;-78
2022/06/01 04:02:42;;;;;;;;;7.67;7.00;;;;;30.35;22.58;101068.34;5095756;27;47642;-78
2022/06/01 04:05:09;;;;;;;;;6.00;6.00;;;;;30.23;22.77;101058.13;5097907;27;45385;-78
2022/06/01 04:07:34;;;;;;;;;7.67;7.00;;;;;30.38;22.80;101068.16;5098320;27;45473;-78
2022/06/01 04:10:00;;;;;;;;;6.67;5.00;;;;;30.49;22.41;101074.88;5097851;27;45427;-78
2022/06/01 04:12:26;;;;;;;;;7.00;6.00;;;;;30.48;22.79;101071.28;5097795;27;45456;-78
2022/06/01 04:14:51;;;;;;;;;6.00;6.00;;;;;30.39;22.90;101079.97;5097988;27;45472;-78
2022/06/01 04:17:16;;;;;;;;;5.00;5.00;;;;;30.29;22.35;101065.97;5097668;27;45381;-78
2022/06/01 04:19:42;;;;;;;;;6.00;6.00;;;;;30.42;22.90;101069.75;5098044;27;45502;-78
2022/06/01 04:22:10;;;;;;;;;7.00;6.00;;;;;30.35;23.01;101072.94;5097574;27;45425;-78
2022/06/01 04:24:36;;;;;;;;;6.00;5.33;;;;;30.27;22.72;101055.09;5098096;27;45440;-78
2022/06/01 04:27:02;;;;;;;;;7.33;6.00;;;;;30.19;23.03;101062.00;5097810;27;45244;-78
2022/06/01 04:29:27;;;;;;;;;8.00;6.00;;;;;30.22;22.86;101070.03;5097738;27;45328;-77
2022/06/01 04:32:00;;;;;;;;;7.33;7.00;;;;;30.37;22.53;101087.41;5097349;27;45341;-77
2022/06/01 04:34:26;;;;;;;;;7.00;7.00;;;;;30.21;22.79;101060.94;5097793;27;45340;-77
2022/06/01 04:36:54;;;;;;;;;7.00;7.00;;;;;30.52;22.44;101102.06;5096376;27;45572;-77
2022/06/01 04:39:20;;;;;;;;;7.67;6.67;;;;;30.62;22.57;101100.56;5097754;27;45407;-77
2022/06/01 04:41:46;;;;;;;;;7.00;6.00;;;;;30.54;22.63;101070.00;5097562;27;46503;-77
2022/06/01 04:44:11;;;;;;;;;8.33;7.00;;;;;30.60;22.70;101086.06;5097212;27;45464;-77
2022/06/01 04:46:36;;;;;;;;;8.00;7.00;;;;;30.55;22.65;101080.88;5097642;27;45524;-77
2022/06/01 04:49:02;;;;;;;;;4.33;4.33;;;;;30.72;22.02;101103.63;5096250;27;45585;-79
2022/06/01 04:51:28;;;;;;;;;7.00;7.00;;;;;30.61;22.38;101085.09;5097346;27;45517;-78
2022/06/01 04:53:53;;;;;;;;;8.67;6.33;;;;;30.75;22.52;101098.84;5095823;27;45627;-79
2022/06/01 04:56:19;;;;;;;;;8.33;8.00;;;;;30.83;22.67;101105.69;5095968;27;45421;-79
2022/06/01 04:58:44;;;;;;;;;8.00;7.00;;;;;30.89;21.95;101103.47;5097475;27;45486;-80
2022/06/01 05:01:09;;;;;;;;;7.33;7.00;;;;;30.83;22.09;101102.97;5096858;27;46481;-80
2022/06/01 05:03:35;;;;;;;;;7.33;7.00;;;;;30.87;22.26;101112.75;5095930;27;45291;-80
2022/06/01 05:06:00;;;;;;;;;10.67;8.00;;;;;30.92;21.91;101127.06;5097216;27;45453;-80
2022/06/01 05:08:25;;;;;;;;;8.00;6.67;;;;;30.82;22.14;101103.97;5097334;27;45512;-81
2022/06/01 05:10:51;;;;;;;;;7.33;7.00;;;;;30.90;21.91;101113.47;5096620;27;46693;-82
2022/06/01 05:13:18;;;;;;;;;8.00;8.00;;;;;31.02;21.78;101127.41;5096873;27;45441;-81
2022/06/01 05:15:56;;;;;;;;;8.33;8.33;;;;;31.07;21.88;101120.69;5097073;27;45387;-80
2022/06/01 05:18:22;;;;;;;;;11.00;8.00;;;;;31.00;21.78;101111.03;5096782;27;45470;-81
2022/06/01 05:20:48;;;;;;;;;9.00;8.00;;;;;31.08;22.04;101127.94;5096069;27;45624;-82
2022/06/01 05:23:16;;;;;;;;;8.67;8.00;;;;;31.05;21.82;101122.63;5111092;27;45404;-82
2022/06/01 05:25:42;;;;;;;;;8.33;8.33;;;;;31.16;21.71;101124.69;5105555;27;45286;-82
2022/06/01 05:28:08;;;;;;;;;11.00;9.00;;;;;31.17;21.82;101136.53;5099712;27;45637;-80
2022/06/01 05:30:34;;;;;;;;;7.67;7.00;;;;;31.08;21.72;101111.50;5096307;27;45458;-80
2022/06/01 05:32:59;;;;;;;;;7.00;7.00;;;;;31.05;21.96;101106.16;5096713;27;45421;-79
2022/06/01 05:35:25;;;;;;;;;12.67;11.00;;;;;31.06;21.84;101094.25;5096264;27;45503;-79
2022/06/01 05:37:50;;;;;;;;;10.00;10.00;;;;;31.21;21.57;101108.88;5100578;27;45537;-79
2022/06/01 05:40:15;;;;;;;;;11.00;10.00;;;;;31.05;21.60;101067.81;5101965;27;46386;-77
2022/06/01 05:42:41;;;;;;;;;11.00;10.00;;;;;31.32;21.12;101112.78;5095322;27;45605;-79
2022/06/01 05:45:07;;;;;;;;;12.67;9.00;;;;;31.34;21.28;101106.22;5094799;27;45447;-80
2022/06/01 05:47:34;;;;;;;;;11.67;10.00;;;;;31.47;21.61;101126.41;5102842;27;45354;-77
2022/06/01 05:49:59;;;;;;;;;10.33;9.00;;;;;31.40;21.51;101102.22;5103434;27;46191;-79
2022/06/01 05:52:25;;;;;;;;;12.33;10.00;;;;;31.35;21.83;101085.16;5096071;27;45372;-82
2022/06/01 05:54:50;;;;;;;;;9.33;9.33;;;;;31.66;21.15;101113.41;5096539;27;45336;-78
2022/06/01 05:57:15;;;;;;;;;10.67;9.00;;;;;31.59;21.39;101102.84;5095382;27;45452;-77
2022/06/01 05:59:41;;;;;;;;;9.67;9.67;;;;;31.50;20.99;101084.19;5111428;27;45360;-76
2022/06/01 06:02:08;;;;;;;;;11.33;10.00;;;;;31.65;21.41;101093.34;5089734;27;45451;-85
2022/06/01 06:04:33;;;;;;;;;10.67;10.33;;;;;31.49;21.16;101060.50;5087743;27;45868;-79
2022/06/01 06:06:58;;;;;;;;;10.33;10.33;;;;;31.56;21.44;101074.69;5083810;27;45520;-79
2022/06/01 06:09:24;;;;;;;;;13.00;12.00;;;;;31.64;21.09;101077.84;5085002;27;46706;-79
2022/06/01 06:11:51;;;;;;;;;13.67;10.67;;;;;31.87;21.45;101108.38;5089336;27;45872;-78
2022/06/01 06:14:18;;;;;;;;;12.67;12.67;;;;;32.03;21.21;101127.50;5092128;27;45524;-76
2022/06/01 06:16:45;;;;;;;;;13.00;10.00;;;;;32.01;21.01;101121.22;5088657;27;45573;-77
2022/06/01 06:19:11;;;;;;;;;12.33;12.00;;;;;31.89;20.65;101106.44;5088618;27;45642;-79
2022/06/01 06:21:37;;;;;;;;;12.33;12.00;;;;;31.92;21.16;101106.25;5088416;27;45627;-79
2022/06/01 06:24:12;;;;;;;;;10.33;9.67;;;;;31.91;21.19;101094.38;5088103;27;45648;-78
2022/06/01 06:26:39;;;;;;;;;13.33;12.67;;;;;32.05;20.15;101125.50;5085967;27;45600;-78
2022/06/01 06:29:09;;;;;;;;;8.67;8.00;;;;;32.03;20.41;101111.91;5093111;27;46328;-80
2022/06/01 06:31:36;;;;;;;;;9.00;9.00;;;;;32.15;20.59;101123.94;5089582;27;45502;-80
2022/06/01 06:34:01;;;;;;;;;12.00;10.67;;;;;31.70;20.26;101082.97;5088145;27;45404;-78
2022/06/01 06:36:27;;;;;;;;;6.67;6.67;;;;;31.99;20.91;101119.44;5089732;27;45398;-79
2022/06/01 06:38:52;;;;;;;;;8.00;8.00;;;;;32.05;20.80;101109.91;5089619;27;45760;-78
2022/06/01 06:41:18;;;;;;;;;8.33;7.33;;;;;31.96;20.29;101124.25;5090573;27;45567;-79
2022/06/01 06:43:43;;;;;;;;;6.33;6.33;;;;;32.05;20.45;101120.03;5089764;27;45408;-79
2022/06/01 06:46:12;;;;;;;;;5.67;4.67;;;;;32.25;20.29;101136.09;5089770;27;45368;-78
2022/06/01 06:48:38;;;;;;;;;5.00;5.00;;;;;32.03;20.13;101080.84;5089542;27;46545;-80
2022/06/01 06:51:04;;;;;;;;;5.00;5.00;;;;;32.46;20.15;101124.63;5089129;27;45704;-78
2022/06/01 06:53:29;;;;;;;;;10.00;8.67;;;;;32.54;20.37;101129.63;5089544;27;45374;-77
2022/06/01 06:55:55;;;;;;;;;3.67;3.67;;;;;32.34;19.45;101134.59;5089646;27;45842;-78
2022/06/01 06:58:22;;;;;;;;;6.00;4.00;;;;;32.17;19.96;101130.22;5088743;27;46520;-77
2022/06/01 07:00:47;;;;;;;;;4.33;4.00;;;;;32.04;19.32;101127.38;5088930;27;45448;-77
2022/06/01 07:03:13;;;;;;;;;4.00;4.00;;;;;32.05;20.17;101123.63;5087682;27;46310;-77
2022/06/01 07:08:25;;;;;;;;;5.00;4.00;;;;;32.24;19.80;101127.97;5091654;27;45491;-79
2022/06/01 07:10:51;;;;;;;;;4.00;4.00;;;;;32.28;19.37;101146.88;5096594;27;45815;-80
2022/06/01 07:13:16;;;;;;;;;3.67;3.67;;;;;32.01;19.53;101085.53;5080899;27;45502;-80
2022/06/01 07:15:42;;;;;;;;;3.00;3.00;;;;;32.18;20.12;101114.63;5094250;27;45526;-78
2022/06/01 07:18:07;;;;;;;;;1.00;1.00;;;;;32.21;19.92;101150.09;5087897;27;47185;-78
2022/06/01 07:20:33;;;;;;;;;4.00;3.00;;;;;32.08;19.96;101128.94;5089877;27;45512;-77
2022/06/01 07:22:58;;;;;;;;;3.33;2.00;;;;;32.12;19.68;101146.09;5089700;27;45477;-77
2022/06/01 07:25:25;;;;;;;;;5.00;3.67;;;;;32.02;19.79;101134.81;5089605;27;45492;-79
2022/06/01 07:27:50;;;;;;;;;2.00;2.00;;;;;31.99;19.37;101124.94;5087890;27;47311;-80
2022/06/01 07:30:17;;;;;;;;;3.00;2.67;;;;;31.89;20.11;101117.41;5098875;27;45442;-80
2022/06/01 07:32:47;;;;;;;;;3.00;3.00;;;;;32.02;19.26;101143.06;5091023;27;45473;-79
2022/06/01 07:35:14;;;;;;;;;4.00;4.00;;;;;32.16;19.36;101133.94;5088137;27;45482;-82
2022/06/01 07:43:10;;;;;;;;;5.67;4.33;;;;;31.84;19.17;101134.16;5086675;27;45532;-78
2022/06/01 07:45:45;;;;;;;;;3.67;3.67;;;;;32.21;19.46;101147.38;5091118;27;45649;-79
2022/06/01 07:48:11;;;;;;;;;4.67;3.67;;;;;31.95;19.28;101128.84;5091135;27;46501;-79
2022/06/01 07:50:36;;;;;;;;;4.33;4.00;;;;;32.16;19.83;101147.69;5094550;27;45533;-79
2022/06/01 07:53:04;;;;;;;;;5.00;4.00;;;;;31.86;19.85;101118.50;5092620;27;45571;-80
2022/06/01 07:55:30;;;;;;;;;5.33;4.33;;;;;31.68;19.49;101109.59;5094510;27;45522;-79
2022/06/01 07:57:55;;;;;;;;;2.67;2.67;;;;;31.75;19.60;101126.53;5087160;27;46223;-79
2022/06/01 08:00:21;;;;;;;;;3.00;3.00;;;;;32.06;19.63;101141.88;5108838;27;45936;-80
2022/06/01 08:02:47;;;;;;;;;4.00;4.00;;;;;32.18;19.21;101153.97;5092105;27;45537;-79
2022/06/01 08:05:15;;;;;;;;;5.00;4.00;;;;;32.04;19.51;101152.09;5092755;27;45733;-79
2022/06/01 08:07:42;;;;;;;;;5.67;4.00;;;;;31.78;19.67;101138.19;5086231;27;45478;-76
2022/06/01 08:10:09;;;;;;;;;4.00;4.00;;;;;31.99;20.03;101146.88;5094929;27;46482;-79
2022/06/01 08:15:18;;;;;;;;;5.00;4.00;;;;;32.30;18.93;101133.03;5089444;27;45801;-76
2022/06/01 08:17:46;;;;;;;;;2.33;2.33;;;;;32.44;18.85;101146.72;5088373;27;45582;-77
2022/06/01 08:20:12;;;;;;;;;2.67;2.67;;;;;32.31;19.48;101137.56;5088873;27;45564;-76
2022/06/01 08:22:38;;;;;;;;;4.00;3.67;;;;;32.19;19.35;101152.97;5088687;27;45565;-76
2022/06/01 08:25:04;;;;;;;;;3.00;3.00;;;;;32.09;19.75;101144.41;5089241;27;45440;-76
2022/06/01 08:27:29;;;;;;;;;7.33;7.33;;;;;32.25;18.98;101141.59;5089474;27;46406;-77
2022/06/01 08:29:54;;;;;;;;;5.33;4.00;;;;;32.34;19.21;101142.84;5088233;27;45488;-76
2022/06/01 08:32:20;;;;;;;;;9.33;8.00;;;;;32.31;19.36;101156.78;5089733;27;45497;-76
2022/06/01 08:34:45;;;;;;;;;4.33;3.00;;;;;32.30;18.71;101122.94;5104609;27;45870;-77
2022/06/01 08:37:10;;;;;;;;;3.33;3.33;;;;;32.46;18.86;101138.38;5090880;27;45493;-78
2022/06/01 08:39:35;;;;;;;;;4.33;4.33;;;;;32.53;19.07;101145.22;5088078;27;45494;-75
2022/06/01 08:42:03;;;;;;;;;3.67;3.67;;;;;32.17;19.18;101067.09;5090335;27;45473;-75
2022/06/01 08:44:33;;;;;;;;;1.67;1.67;;;;;32.61;18.97;101128.22;5090862;27;45386;-76
2022/06/01 08:47:05;;;;;;;;;4.00;4.00;;;;;32.85;18.45;101153.16;5088672;27;47086;-76
2022/06/01 08:49:33;;;;;;;;;2.67;2.67;;;;;32.51;18.19;101132.59;5089574;27;47076;-77
2022/06/01 08:51:59;;;;;;;;;3.67;2.33;;;;;32.74;18.07;101139.28;5087798;27;45566;-76
2022/06/01 08:54:24;;;;;;;;;3.67;3.67;;;;;32.83;18.50;101152.41;5093044;27;45425;-76
2022/06/01 08:56:53;;;;;;;;;3.00;3.00;;;;;32.72;18.09;101147.63;5092309;27;45530;-75
2022/06/01 08:59:56;;;;;;;;;3.00;3.00;;;;;32.68;18.44;101143.28;5093409;27;45289;-75
2022/06/01 09:02:49;;;;;;;;;3.00;3.00;;;;;32.85;18.83;101147.66;5092854;27;45538;-75
2022/06/01 09:05:18;;;;;;;;;3.33;3.00;;;;;32.75;18.46;101139.16;5093062;27;45661;-76
2022/06/01 09:08:28;;;;;;;;;4.00;3.00;;;;;32.82;18.61;101151.50;5107660;27;47194;-75
2022/06/01 09:10:59;;;;;;;;;3.67;3.00;;;;;33.03;17.81;101148.25;5085358;27;45663;-75
2022/06/01 09:13:43;;;;;;;;;4.00;4.00;;;;;33.05;17.92;101149.00;5091179;27;45600;-74
2022/06/01 09:16:17;;;;;;;;;3.00;3.00;;;;;33.15;18.47;101155.66;5093586;27;45445;-77
2022/06/01 09:18:50;;;;;;;;;3.00;3.00;;;;;33.22;18.22;101153.34;5092962;27;46378;-74
2022/06/01 09:24:14;;;;;;;;;4.33;4.33;;;;;33.35;17.84;101153.41;5091434;27;45236;-74
2022/06/01 09:26:51;;;;;;;;;2.00;2.00;;;;;33.27;17.69;101140.19;5092951;27;45443;-78
2022/06/01 09:29:20;;;;;;;;;4.00;4.00;;;;;33.31;18.16;101160.09;5096542;27;45542;-77
2022/06/01 09:31:48;;;;;;;;;3.00;3.00;;;;;33.36;18.37;101155.13;5092974;27;45479;-78
2022/06/01 09:34:47;;;;;;;;;2.67;2.67;;;;;33.30;18.22;101159.19;5108794;27;45563;-81
2022/06/01 09:37:22;;;;;;;;;5.00;5.00;;;;;33.29;17.88;101140.06;5093092;27;45534;-75
2022/06/01 09:39:53;;;;;;;;;5.00;3.00;;;;;33.42;18.14;101138.22;5092377;27;45562;-76
2022/06/01 09:42:25;;;;;;;;;4.33;4.00;;;;;33.57;17.53;101143.59;5093250;27;45369;-83
2022/06/01 09:44:54;;;;;;;;;2.67;2.67;;;;;33.41;18.15;101147.44;5095711;27;45506;-81
2022/06/01 09:47:31;;;;;;;;;5.00;4.00;;;;;33.40;17.72;101156.69;5092117;27;45753;-81
2022/06/01 09:49:59;;;;;;;;;3.00;3.00;;;;;33.68;18.12;101160.22;5092416;27;46219;-81
2022/06/01 09:52:31;;;;;;;;;3.00;3.00;;;;;33.83;17.80;101161.00;5091524;27;45664;-81
2022/06/01 09:55:06;;;;;;;;;3.00;3.00;;;;;33.55;18.31;101154.72;5108850;27;45467;-81
2022/06/01 09:57:35;;;;;;;;;2.67;2.67;;;;;33.58;18.18;101139.88;5092849;27;45284;-83
2022/06/01 10:08:26;;;;;;;;;3.00;2.00;;;;;34.16;17.57;101138.38;5091535;27;45683;-76
2022/06/01 10:11:04;;;;;;;;;3.00;3.00;;;;;34.22;17.15;101125.09;5091628;27;46017;-76
2022/06/01 10:13:31;;;;;;;;;2.00;2.00;;;;;34.23;17.66;101130.50;5091902;27;45489;-75
2022/06/01 10:16:15;;;;;;;;;3.00;3.00;;;;;34.25;17.20;101141.41;5090817;27;45545;-75
2022/06/01 10:18:43;;;;;;;;;3.00;3.00;;;;;34.35;17.66;101123.22;5092776;27;45522;-81
2022/06/01 10:21:14;;;;;;;;;2.67;1.33;;;;;34.47;17.11;101121.41;5093936;27;46587;-85
2022/06/01 10:23:47;;;;;;;;;2.00;2.00;;;;;34.41;16.86;101132.91;5107710;27;45368;-86
2022/06/01 10:26:21;;;;;;;;;2.33;2.33;;;;;34.26;16.72;101110.13;5092399;27;45285;-81
2022/06/01 10:28:52;;;;;;;;;3.00;2.00;;;;;34.42;17.04;101119.00;5090592;27;45359;-81
2022/06/01 10:31:31;;;;;;;;;4.00;3.00;;;;;34.53;16.47;101138.34;5091872;27;46418;-80
2022/06/01 10:34:29;;;;;;;;;1.00;1.00;;;;;34.56;16.91;101133.59;5091403;27;45401;-80
2022/06/01 10:37:00;;;;;;;;;3.00;2.67;;;;;34.40;17.52;101122.88;5090932;27;45398;-66
2022/06/01 10:39:34;;;;;;;;;2.00;2.00;;;;;34.61;17.19;101137.75;5090992;27;45831;-67
2022/06/01 10:43:16;;;;;;;;;2.00;2.00;;;;;34.67;17.23;101120.75;5091640;27;45527;-67
2022/06/01 10:45:15;;;;;;;;;5.33;4.00;;;;;34.52;16.93;101132.97;5046309;28;45493;-67
2022/06/01 10:47:56;;;;;;;;;3.00;3.00;;;;;34.24;16.85;101121.25;5047559;28;45403;-67
2022/06/01 10:50:30;;;;;;;;;2.00;2.00;;;;;34.53;17.29;101118.19;5048190;28;45534;-66
2022/06/01 10:53:13;;;;;;;;;3.00;3.00;;;;;34.73;16.54;101130.44;5047823;28;45476;-66
2022/06/01 10:55:42;;;;;;;;;3.67;2.33;;;;;34.71;16.73;101124.13;5047487;28;45455;-66
2022/06/01 10:58:16;;;;;;;;;2.67;2.33;;;;;34.85;16.94;101107.47;5045967;28;45415;-67
2022/06/01 11:00:53;;;;;;;;;3.67;3.67;;;;;35.06;16.65;101115.03;5047598;28;45517;-65
2022/06/01 11:03:31;;;;;;;;;3.00;3.00;;;;;35.26;16.94;101131.84;5048739;28;45483;-66
2022/06/01 11:06:50;;;;;;;;;2.00;2.00;;;;;35.40;16.62;101111.47;5047271;28;45657;-65
2022/06/01 11:09:30;;;;;;;;;1.33;1.00;;;;;35.41;16.46;101118.75;5004227;28;45692;-64
2022/06/01 11:12:17;;;;;;;;;2.00;2.00;;;;;35.14;16.02;101097.88;4989046;28;45554;-64
2022/06/01 11:14:53;;;;;;;;;4.00;3.00;;;;;35.15;16.32;101108.78;4990881;28;46100;-64
2022/06/01 11:17:18;;;;;;;;;4.67;2.00;;;;;34.86;16.06;101103.69;4990533;28;45565;-66
2022/06/01 11:20:04;;;;;;;;;3.00;3.00;;;;;34.84;16.25;101105.69;4990863;28;45531;-66
2022/06/01 11:22:32;;;;;;;;;2.67;2.67;;;;;34.85;15.93;101107.47;5038015;28;45669;-64
2022/06/01 11:25:12;;;;;;;;;4.00;4.00;;;;;34.79;16.53;101109.78;5050476;28;45923;-77
2022/06/01 11:27:45;;;;;;;;;6.33;4.67;;;;;34.59;15.89;101097.56;5047862;28;45551;-78
2022/06/01 11:30:18;;;;;;;;;3.00;3.00;;;;;34.78;16.27;101095.13;5049974;28;46410;-78
2022/06/01 11:33:04;;;;;;;;;5.00;5.00;;;;;34.96;15.96;101097.47;5048725;28;45562;-79
2022/06/01 11:35:52;;;;;;;;;3.67;2.67;;;;;35.21;15.72;101091.72;5051490;28;47122;-81
2022/06/01 11:38:21;;;;;;;;;2.00;2.00;;;;;35.32;15.92;101092.81;5050564;28;45484;-77
2022/06/01 11:40:55;;;;;;;;;2.33;2.33;;;;;35.19;15.92;101098.38;5052667;27;45625;-78
2022/06/01 11:43:31;;;;;;;;;3.33;3.33;;;;;35.19;16.07;101096.50;5074289;27;45401;-80
2022/06/01 11:46:02;;;;;;;;;3.33;3.33;;;;;35.22;16.41;101095.38;5094509;27;45450;-80
2022/06/01 11:48:37;;;;;;;;;3.00;3.00;;;;;35.28;16.09;101089.38;5094717;27;45321;-79
2022/06/01 11:51:06;;;;;;;;;4.00;4.00;;;;;35.35;15.81;101087.03;5095077;27;45380;-79
2022/06/01 11:53:42;;;;;;;;;2.00;2.00;;;;;35.25;15.44;101091.47;5109419;27;45535;-78
2022/06/01 11:56:30;;;;;;;;;3.00;3.00;;;;;35.37;15.96;101090.53;5095480;27;46380;-78
2022/06/01 11:58:58;;;;;;;;;3.00;3.00;;;;;35.54;15.96;101084.53;5094106;27;45795;-78
2022/06/01 12:01:36;;;;;;;;;3.00;2.00;;;;;35.38;15.54;101061.94;5094263;27;45486;-77
2022/06/01 12:04:22;;;;;;;;;3.00;3.00;;;;;35.36;15.21;101088.81;5095766;27;46579;-79
2022/06/01 12:07:06;;;;;;;;;2.00;2.00;;;;;35.19;15.75;101091.00;5091434;27;47462;-77
2022/06/01 12:09:47;;;;;;;;;4.00;2.00;;;;;35.24;15.35;101073.19;5095371;27;45516;-75